Troy, Idaho
Current Conditions -  °F | °C
As of 5:53 PM on Saturday 25 Oct 2014 (Local Time) from KPUW Reporting Station
Broken Clouds Broken Clouds  
Wind Chill: 17°   Ceiling: 10000
Heat Index: 17°   Visibility: 10mi
Dew Point:   Wind: 9mph
Humidity: 46%   Direction: 200°SSW
Pressure: 29.58"   Gusts: NA
Location:  46.74°N, 116.77°W
Report Text: KPUW 260053Z AUTO 20008KT 10SM BKN100 BKN120 17/05 A2958 RMK AO2 SLP011 T01670050
Loading
Personal Weather Stations






























Interactive Weather Map
Tropical Storm Tracking
New forecast layout! Learn more

10-Day Weather Forecast

Advertisements
Track Severe Weather on mobile